Time;durP1;ratioP1;P1;durP2;ratioP2;P2;SDS_P1;SDS_P2;PMS_P1;PMS_P2;Temp;Humidity;BMP_temperature;BMP_pressure;BME280_temperature;BME280_humidity;BME280_pressure;Samples;Min_cycle;Max_cycle;Signal;HPM_P1;HPM_P2
2021/12/22 00:03:48;;;;;;;;;;;2.40;56.70;;;;;;6217655;23;19918;-88
2021/12/22 00:06:20;;;;;;;;;;;2.50;56.70;;;;;;6218758;23;19912;-90
2021/12/22 00:08:46;;;;;;;;;;;2.50;56.80;;;;;;6190650;23;19951;-89
2021/12/22 00:11:12;;;;;;;;;;;2.50;56.80;;;;;;6191753;23;19907;-88
2021/12/22 00:13:38;;;;;;;;;;;2.60;56.80;;;;;;6191517;23;19915;-88
2021/12/22 00:16:03;;;;;;;;;;;2.60;56.80;;;;;;6190349;23;19912;-88
2021/12/22 00:18:29;;;;;;;;;;;2.60;56.80;;;;;;6218296;23;20377;-90
2021/12/22 00:20:54;;;;;;;;;;;2.70;56.70;;;;;;6219723;23;19908;-88
2021/12/22 00:23:20;;;;;;;;;;;2.70;56.70;;;;;;6220541;23;19908;-89
2021/12/22 00:25:46;;;;;;;;;;;2.70;56.50;;;;;;6193459;23;20348;-87
2021/12/22 00:28:12;;;;;;;;;;;2.70;56.30;;;;;;6220230;23;19920;-89
2021/12/22 00:30:38;;;;;;;;;;;2.70;56.20;;;;;;6220139;23;19912;-88
2021/12/22 00:33:06;;;;;;;;;;;2.70;55.90;;;;;;6220279;23;19923;-89
2021/12/22 00:35:39;;;;;;;;;;;2.60;55.40;;;;;;6221927;23;19918;-89
2021/12/22 00:38:05;;;;;;;;;;;2.60;55.10;;;;;;6193088;23;20036;-88
2021/12/22 00:40:31;;;;;;;;;;;2.40;54.70;;;;;;6219580;23;19915;-88
2021/12/22 00:42:56;;;;;;;;;;;2.40;54.50;;;;;;6216256;23;19907;-88
2021/12/22 00:45:24;;;;;;;;;;;2.40;53.90;;;;;;6219951;23;19966;-89
2021/12/22 00:47:50;;;;;;;;;;;2.20;53.40;;;;;;6218129;23;20277;-88
2021/12/22 00:50:15;;;;;;;;;;;2.10;53.20;;;;;;6218317;23;19985;-88
2021/12/22 00:52:41;;;;;;;;;;;2.00;53.20;;;;;;6191903;23;19935;-88
2021/12/22 00:55:06;;;;;;;;;;;1.80;53.20;;;;;;6218833;23;20232;-88
2021/12/22 00:57:33;;;;;;;;;;;1.80;52.90;;;;;;6194866;23;19982;-88
2021/12/22 00:59:59;;;;;;;;;;;1.70;52.60;;;;;;6192713;23;19935;-89
2021/12/22 01:02:25;;;;;;;;;;;1.60;52.60;;;;;;6218472;23;19909;-89
2021/12/22 01:04:50;;;;;;;;;;;1.50;52.50;;;;;;6192785;23;19955;-88
2021/12/22 01:07:16;;;;;;;;;;;1.40;52.60;;;;;;6219320;23;19930;-88
2021/12/22 01:09:41;;;;;;;;;;;1.30;52.60;;;;;;6217868;23;20313;-90
2021/12/22 01:12:10;;;;;;;;;;;1.30;52.30;;;;;;6219370;23;19904;-89
2021/12/22 01:14:37;;;;;;;;;;;1.20;52.10;;;;;;6191216;23;19912;-89
2021/12/22 01:17:03;;;;;;;;;;;1.10;52.00;;;;;;6216484;23;19908;-90
2021/12/22 01:19:49;;;;;;;;;;;1.00;51.80;;;;;;6216222;23;20383;-89
2021/12/22 01:22:47;;;;;;;;;;;0.90;51.80;;;;;;6191500;23;20232;-89
2021/12/22 01:25:06;;;;;;;;;;;0.90;52.00;;;;;;6220166;23;19920;-88
2021/12/22 01:27:35;;;;;;;;;;;0.80;52.10;;;;;;6219972;23;19942;-89
2021/12/22 01:30:05;;;;;;;;;;;0.80;52.10;;;;;;6219893;23;19983;-88
2021/12/22 01:32:31;;;;;;;;;;;0.70;52.10;;;;;;6192409;23;20240;-89
2021/12/22 01:34:56;;;;;;;;;;;0.70;52.10;;;;;;6217427;23;19959;-89
2021/12/22 01:37:27;;;;;;;;;;;0.70;52.20;;;;;;6219836;23;19915;-88
2021/12/22 01:39:53;;;;;;;;;;;0.70;52.10;;;;;;6191862;23;20239;-89
2021/12/22 01:42:19;;;;;;;;;;;0.60;52.10;;;;;;6218754;23;19912;-89
2021/12/22 01:50:17;;;;;;;;;;;0.40;51.90;;;;;;6219220;23;20256;-89
2021/12/22 01:52:43;;;;;;;;;;;0.40;51.80;;;;;;6191787;23;20296;-89
2021/12/22 01:55:25;;;;;;;;;;;0.40;51.80;;;;;;6192352;23;19912;-89
2021/12/22 01:57:51;;;;;;;;;;;0.30;51.70;;;;;;6190979;23;19983;-89
2021/12/22 02:00:18;;;;;;;;;;;0.30;51.80;;;;;;6217175;23;19912;-88
2021/12/22 02:02:43;;;;;;;;;;;0.20;52.00;;;;;;6191307;23;19946;-89
2021/12/22 02:05:09;;;;;;;;;;;0.20;52.00;;;;;;6215798;23;19920;-89
2021/12/22 02:07:35;;;;;;;;;;;0.20;52.10;;;;;;6220130;23;19903;-89
2021/12/22 02:10:24;;;;;;;;;;;0.20;52.30;;;;;;6218108;23;20292;-89
2021/12/22 02:12:52;;;;;;;;;;;0.20;52.30;;;;;;6218234;23;19947;-89
2021/12/22 02:15:18;;;;;;;;;;;0.20;52.20;;;;;;6193024;23;19920;-89
2021/12/22 02:17:43;;;;;;;;;;;0.10;51.90;;;;;;6218564;23;19959;-88
2021/12/22 02:20:09;;;;;;;;;;;0.10;51.90;;;;;;6191621;23;19919;-89
2021/12/22 02:22:35;;;;;;;;;;;0.10;52.00;;;;;;6217933;23;19986;-89
2021/12/22 02:25:08;;;;;;;;;;;0.10;52.30;;;;;;6217766;23;19919;-89
2021/12/22 02:27:40;;;;;;;;;;;0.00;52.70;;;;;;6217211;23;19919;-88
2021/12/22 02:30:14;;;;;;;;;;;0.10;53.00;;;;;;6220078;23;19908;-89
2021/12/22 02:35:06;;;;;;;;;;;0.10;53.20;;;;;;6217751;23;19947;-89
2021/12/22 02:37:41;;;;;;;;;;;0.10;53.40;;;;;;6217739;23;20002;-89
2021/12/22 02:40:13;;;;;;;;;;;0.10;53.40;;;;;;6218651;23;19915;-89
2021/12/22 02:42:38;;;;;;;;;;;0.10;53.50;;;;;;6191366;23;19908;-88
2021/12/22 02:45:12;;;;;;;;;;;0.20;53.60;;;;;;6190335;23;19919;-88
2021/12/22 02:47:38;;;;;;;;;;;0.20;53.80;;;;;;6216683;23;19912;-88
2021/12/22 02:50:03;;;;;;;;;;;0.30;53.90;;;;;;6216979;23;19916;-89
2021/12/22 02:52:36;;;;;;;;;;;0.30;53.90;;;;;;6191438;23;20335;-89
2021/12/22 02:55:03;;;;;;;;;;;0.40;53.90;;;;;;6215903;23;19935;-88
2021/12/22 02:57:38;;;;;;;;;;;0.40;54.00;;;;;;6190869;23;19912;-88
2021/12/22 03:05:10;;;;;;;;;;;0.40;53.60;;;;;;6227755;23;19908;-88
2021/12/22 03:07:37;;;;;;;;;;;0.40;53.30;;;;;;6215157;23;20324;-88
2021/12/22 03:10:05;;;;;;;;;;;0.40;52.80;;;;;;6216867;23;19904;-89
2021/12/22 03:12:33;;;;;;;;;;;0.30;52.30;;;;;;6190003;23;20357;-89
2021/12/22 03:14:59;;;;;;;;;;;0.30;51.90;;;;;;6189826;23;19923;-89
2021/12/22 03:17:25;;;;;;;;;;;0.20;51.60;;;;;;6216185;23;20055;-89
2021/12/22 03:19:50;;;;;;;;;;;0.20;51.40;;;;;;6215174;23;19904;-89
2021/12/22 03:22:19;;;;;;;;;;;0.10;51.30;;;;;;6190625;23;19991;-90
2021/12/22 03:24:47;;;;;;;;;;;0.00;51.30;;;;;;6216313;23;19923;-89
2021/12/22 03:27:12;;;;;;;;;;;0.00;51.30;;;;;;6216630;23;19904;-90
2021/12/22 03:29:38;;;;;;;;;;;0.00;51.20;;;;;;6215068;23;20242;-89
2021/12/22 03:32:04;;;;;;;;;;;0.00;51.00;;;;;;6215028;23;19908;-88
2021/12/22 03:34:30;;;;;;;;;;;0.00;51.00;;;;;;6190052;23;20363;-89
2021/12/22 03:36:56;;;;;;;;;;;-3276.70;51.00;;;;;;6214787;23;19904;-89
2021/12/22 03:39:21;;;;;;;;;;;-3276.60;51.00;;;;;;6216851;23;19908;-87
2021/12/22 03:41:47;;;;;;;;;;;-3276.60;51.00;;;;;;6214503;23;19911;-89
2021/12/22 03:44:13;;;;;;;;;;;-3276.50;51.10;;;;;;6214852;23;19912;-88
2021/12/22 03:46:38;;;;;;;;;;;-3276.50;51.30;;;;;;6189708;23;19908;-88
2021/12/22 03:49:05;;;;;;;;;;;-3276.50;51.40;;;;;;6191070;23;19919;-89
2021/12/22 03:51:31;;;;;;;;;;;-3276.40;51.20;;;;;;6189396;23;19949;-89
2021/12/22 03:53:57;;;;;;;;;;;-3276.40;51.20;;;;;;6189852;23;20302;-89
2021/12/22 03:56:22;;;;;;;;;;;-3276.30;51.10;;;;;;6217844;23;19904;-88
2021/12/22 03:58:48;;;;;;;;;;;-3276.30;51.30;;;;;;6218660;23;19951;-89
2021/12/22 04:01:14;;;;;;;;;;;-3276.30;51.30;;;;;;6216862;23;19908;-89
2021/12/22 04:03:42;;;;;;;;;;;-3276.30;51.40;;;;;;6191479;23;20321;-88
2021/12/22 04:06:09;;;;;;;;;;;-3276.30;51.40;;;;;;6216491;23;19931;-88
2021/12/22 04:08:35;;;;;;;;;;;-3276.20;51.60;;;;;;6218415;23;19915;-89
2021/12/22 04:11:00;;;;;;;;;;;-3276.20;51.50;;;;;;6216456;23;19992;-88
2021/12/22 04:13:26;;;;;;;;;;;-3276.20;51.40;;;;;;6217485;23;19916;-89
2021/12/22 04:15:51;;;;;;;;;;;-3276.20;51.40;;;;;;6216348;23;19904;-89
2021/12/22 04:18:17;;;;;;;;;;;-3276.20;51.50;;;;;;6218868;23;19999;-89
2021/12/22 04:20:43;;;;;;;;;;;-3276.20;51.60;;;;;;6191670;23;19904;-88
2021/12/22 04:23:08;;;;;;;;;;;-3276.20;51.60;;;;;;6216614;23;19912;-88
2021/12/22 04:25:34;;;;;;;;;;;-3276.20;51.70;;;;;;6218536;23;19912;-89
2021/12/22 04:28:04;;;;;;;;;;;-3276.20;51.60;;;;;;6191770;23;19951;-89
2021/12/22 04:30:32;;;;;;;;;;;-3276.10;51.50;;;;;;6191774;23;19992;-88
2021/12/22 04:32:57;;;;;;;;;;;-3276.10;51.50;;;;;;6191136;23;19916;-89
2021/12/22 04:35:23;;;;;;;;;;;-3276.10;51.30;;;;;;6192240;23;19908;-89
2021/12/22 04:37:48;;;;;;;;;;;-3276.10;51.40;;;;;;6218732;23;19960;-88
2021/12/22 04:40:14;;;;;;;;;;;-3276.10;51.40;;;;;;6218699;23;20280;-88
2021/12/22 04:42:39;;;;;;;;;;;-3276.00;51.40;;;;;;6215727;23;19958;-88
2021/12/22 04:45:07;;;;;;;;;;;-3276.00;51.30;;;;;;6216453;23;20366;-89
2021/12/22 04:47:33;;;;;;;;;;;-3276.00;51.30;;;;;;6216182;23;19915;-89
2021/12/22 04:50:00;;;;;;;;;;;-3276.00;51.30;;;;;;6191666;23;20038;-89
2021/12/22 04:52:28;;;;;;;;;;;-3276.00;51.40;;;;;;6191474;23;19912;-89
2021/12/22 04:55:04;;;;;;;;;;;-3276.00;51.50;;;;;;6192386;23;20319;-88
2021/12/22 04:57:30;;;;;;;;;;;-3276.00;51.50;;;;;;6191848;23;20304;-88
2021/12/22 04:59:56;;;;;;;;;;;-3275.90;51.30;;;;;;6192288;23;19940;-90
2021/12/22 05:02:21;;;;;;;;;;;-3275.90;51.30;;;;;;6216863;23;19995;-89
2021/12/22 05:04:47;;;;;;;;;;;-3275.90;51.10;;;;;;6218253;23;19912;-89
2021/12/22 05:07:12;;;;;;;;;;;-3275.90;51.00;;;;;;6218139;23;19997;-89
2021/12/22 05:09:37;;;;;;;;;;;-3275.90;50.90;;;;;;6217305;23;19935;-89
2021/12/22 05:12:03;;;;;;;;;;;-3275.90;50.90;;;;;;6217285;23;20297;-89
2021/12/22 05:14:29;;;;;;;;;;;-3275.90;50.90;;;;;;6191069;23;20226;-88
2021/12/22 05:16:59;;;;;;;;;;;-3275.90;51.00;;;;;;6190800;23;19904;-88
2021/12/22 05:19:25;;;;;;;;;;;-3275.90;51.00;;;;;;6218560;23;19908;-88
2021/12/22 05:21:51;;;;;;;;;;;-3276.00;50.90;;;;;;6191729;23;19986;-89
2021/12/22 05:24:16;;;;;;;;;;;-3275.90;50.90;;;;;;6192853;23;20280;-88
2021/12/22 05:26:42;;;;;;;;;;;-3275.90;50.90;;;;;;6216553;23;19907;-89
2021/12/22 05:29:07;;;;;;;;;;;-3275.90;51.00;;;;;;6220017;23;20312;-89
2021/12/22 05:31:33;;;;;;;;;;;-3275.90;51.00;;;;;;6218761;23;20248;-89
2021/12/22 05:33:59;;;;;;;;;;;-3275.90;51.00;;;;;;6218244;23;19908;-87
2021/12/22 05:36:24;;;;;;;;;;;-3275.90;51.10;;;;;;6218645;23;19990;-88
2021/12/22 05:38:50;;;;;;;;;;;-3275.90;51.00;;;;;;6219295;23;19986;-88
2021/12/22 05:41:15;;;;;;;;;;;-3275.90;51.00;;;;;;6218318;23;19932;-88
2021/12/22 05:43:41;;;;;;;;;;;-3275.90;51.10;;;;;;6218312;23;20224;-88
2021/12/22 05:46:06;;;;;;;;;;;-3275.90;51.20;;;;;;6216824;23;19978;-88
2021/12/22 05:48:32;;;;;;;;;;;-3275.80;51.20;;;;;;6217555;23;19916;-89
2021/12/22 05:50:58;;;;;;;;;;;-3275.80;51.20;;;;;;6215948;23;19904;-89
2021/12/22 05:53:25;;;;;;;;;;;-3275.90;51.10;;;;;;6218384;23;19916;-89
2021/12/22 05:55:50;;;;;;;;;;;-3275.90;50.90;;;;;;6190806;23;19904;-89
2021/12/22 05:58:16;;;;;;;;;;;-3275.80;50.80;;;;;;6217432;23;20236;-88
2021/12/22 06:00:41;;;;;;;;;;;-3275.80;50.80;;;;;;6217399;23;19908;-88
2021/12/22 06:03:07;;;;;;;;;;;-3275.70;50.80;;;;;;6216437;23;19912;-88
2021/12/22 06:05:32;;;;;;;;;;;-3275.70;50.70;;;;;;6217851;23;19999;-89
2021/12/22 06:07:58;;;;;;;;;;;-3275.70;50.60;;;;;;6218239;23;19904;-89
2021/12/22 06:10:23;;;;;;;;;;;-3275.60;50.50;;;;;;6190802;23;19947;-88
2021/12/22 06:12:49;;;;;;;;;;;-3275.60;50.40;;;;;;6217204;23;19912;-89
2021/12/22 06:15:14;;;;;;;;;;;-3275.60;50.30;;;;;;6216704;23;19912;-90
2021/12/22 06:17:40;;;;;;;;;;;-3275.50;50.20;;;;;;6217944;23;19908;-88
2021/12/22 06:20:05;;;;;;;;;;;-3275.50;50.30;;;;;;6191330;23;20323;-89
2021/12/22 06:22:33;;;;;;;;;;;-3275.50;50.40;;;;;;6191860;23;19908;-89
2021/12/22 06:24:59;;;;;;;;;;;-3275.50;50.50;;;;;;6216276;23;20389;-88
2021/12/22 06:27:24;;;;;;;;;;;-3275.50;50.60;;;;;;6218258;23;19958;-88
2021/12/22 06:29:49;;;;;;;;;;;-3275.50;50.70;;;;;;6216091;23;19907;-89
2021/12/22 06:32:15;;;;;;;;;;;-3275.50;50.70;;;;;;6190442;23;19974;-89
2021/12/22 06:34:41;;;;;;;;;;;-3275.50;50.90;;;;;;6216682;23;19994;-88
2021/12/22 06:37:06;;;;;;;;;;;-3275.60;50.90;;;;;;6215499;23;19912;-89
2021/12/22 06:39:32;;;;;;;;;;;-3275.60;50.90;;;;;;6191451;23;19912;-89
2021/12/22 06:41:58;;;;;;;;;;;-3275.60;51.00;;;;;;6217854;23;19939;-89
2021/12/22 06:44:24;;;;;;;;;;;-3275.60;51.00;;;;;;6217235;23;19911;-88
2021/12/22 06:46:50;;;;;;;;;;;-3275.60;51.20;;;;;;6217292;23;19912;-88
2021/12/22 06:49:15;;;;;;;;;;;-3275.60;51.30;;;;;;6217546;23;20271;-90
2021/12/22 06:51:41;;;;;;;;;;;-3275.60;51.30;;;;;;6215724;23;19904;-90
2021/12/22 06:54:06;;;;;;;;;;;-3275.60;51.30;;;;;;6215088;23;19908;-88
2021/12/22 06:56:32;;;;;;;;;;;-3275.70;51.40;;;;;;6216929;23;19934;-89
2021/12/22 06:58:59;;;;;;;;;;;-3275.70;51.40;;;;;;6191498;23;19904;-89
2021/12/22 07:01:25;;;;;;;;;;;-3275.70;51.50;;;;;;6216401;23;20003;-89
2021/12/22 07:03:50;;;;;;;;;;;-3275.70;51.60;;;;;;6218533;23;19907;-89
2021/12/22 07:06:16;;;;;;;;;;;-3275.70;51.60;;;;;;6215954;23;19935;-90
2021/12/22 07:08:42;;;;;;;;;;;-3275.70;51.60;;;;;;6217483;23;20368;-89
2021/12/22 07:11:09;;;;;;;;;;;-3275.80;51.60;;;;;;6219923;23;19919;-88
2021/12/22 07:13:35;;;;;;;;;;;-3275.80;51.60;;;;;;6219279;23;19904;-88
2021/12/22 07:16:01;;;;;;;;;;;-3275.80;51.70;;;;;;6191663;23;19915;-88
2021/12/22 07:18:26;;;;;;;;;;;-3275.80;51.70;;;;;;6217358;23;19908;-89
2021/12/22 07:20:52;;;;;;;;;;;-3275.80;51.80;;;;;;6218225;23;19908;-89
2021/12/22 07:23:17;;;;;;;;;;;-3275.80;51.80;;;;;;6191891;23;19998;-89
2021/12/22 07:25:43;;;;;;;;;;;-3275.80;51.80;;;;;;6218182;23;19908;-89
2021/12/22 07:28:10;;;;;;;;;;;-3275.90;51.80;;;;;;6216822;23;19912;-89
2021/12/22 07:30:36;;;;;;;;;;;-3275.80;51.80;;;;;;6218268;23;19908;-89
2021/12/22 07:33:03;;;;;;;;;;;-3275.90;51.90;;;;;;6221872;23;20277;-89
2021/12/22 07:35:33;;;;;;;;;;;-3275.90;51.90;;;;;;6220666;23;19915;-89
2021/12/22 07:37:58;;;;;;;;;;;-3275.90;52.00;;;;;;6193084;23;19912;-89
2021/12/22 07:40:23;;;;;;;;;;;-3275.90;52.10;;;;;;6220419;23;19908;-90
2021/12/22 07:42:49;;;;;;;;;;;-3276.00;52.30;;;;;;6219094;23;20316;-89
2021/12/22 07:45:16;;;;;;;;;;;-3276.10;52.70;;;;;;6218250;23;21562;-90
2021/12/22 07:47:45;;;;;;;;;;;-3276.20;53.40;;;;;;6218153;23;19908;-92
2021/12/22 07:50:10;;;;;;;;;;;-3276.30;54.20;;;;;;6218621;23;19920;-88
2021/12/22 07:52:36;;;;;;;;;;;-3276.50;55.30;;;;;;6219017;23;19911;-90
2021/12/22 07:55:02;;;;;;;;;;;-3276.70;56.30;;;;;;6217068;23;19912;-89
2021/12/22 07:57:27;;;;;;;;;;;0.10;57.00;;;;;;6193393;23;20023;-90
2021/12/22 07:59:53;;;;;;;;;;;0.40;57.60;;;;;;6220721;23;19923;-90
2021/12/22 08:02:18;;;;;;;;;;;0.60;58.20;;;;;;6218330;23;19970;-90
2021/12/22 08:04:48;;;;;;;;;;;1.00;58.70;;;;;;6215196;23;19974;-89
2021/12/22 08:07:13;;;;;;;;;;;1.20;58.60;;;;;;6217754;23;20321;-89
2021/12/22 08:09:39;;;;;;;;;;;1.40;58.40;;;;;;6218844;23;19922;-90
2021/12/22 08:12:05;;;;;;;;;;;1.70;58.40;;;;;;6219907;23;19911;-89
2021/12/22 08:14:31;;;;;;;;;;;1.80;58.20;;;;;;6192947;23;19930;-88
2021/12/22 08:16:57;;;;;;;;;;;2.00;58.00;;;;;;6193210;23;19912;-89
2021/12/22 08:19:22;;;;;;;;;;;2.10;57.80;;;;;;6219301;23;19935;-89
2021/12/22 08:21:48;;;;;;;;;;;2.30;58.00;;;;;;6218713;23;19904;-89
2021/12/22 08:24:14;;;;;;;;;;;2.40;58.10;;;;;;6219166;23;20108;-89
2021/12/22 08:26:39;;;;;;;;;;;2.70;58.60;;;;;;6191888;23;19991;-88
2021/12/22 08:29:05;;;;;;;;;;;2.80;59.10;;;;;;6216215;23;19912;-88
2021/12/22 08:31:31;;;;;;;;;;;3.10;59.00;;;;;;6192802;23;19904;-90
2021/12/22 08:33:57;;;;;;;;;;;3.20;58.60;;;;;;6191926;23;19912;-88
2021/12/22 08:39:07;;;;;;;;;;;3.50;58.30;;;;;;6219017;23;19955;-88
2021/12/22 08:41:34;;;;;;;;;;;3.70;59.20;;;;;;6215661;23;19908;-88
2021/12/22 08:44:04;;;;;;;;;;;3.90;59.60;;;;;;6191444;23;19919;-90
2021/12/22 08:46:30;;;;;;;;;;;4.10;59.70;;;;;;6192609;23;19904;-90
2021/12/22 08:48:56;;;;;;;;;;;4.20;59.20;;;;;;6193202;23;19923;-90
2021/12/22 08:51:22;;;;;;;;;;;4.20;59.00;;;;;;6220427;23;20201;-88
2021/12/22 08:53:48;;;;;;;;;;;4.30;58.80;;;;;;6220027;23;19915;-88
2021/12/22 08:56:13;;;;;;;;;;;4.40;59.10;;;;;;6221772;23;19974;-89
2021/12/22 08:58:43;;;;;;;;;;;4.60;59.50;;;;;;6197197;23;19966;-89
2021/12/22 09:01:08;;;;;;;;;;;4.70;59.60;;;;;;6218456;23;19954;-88
2021/12/22 09:03:35;;;;;;;;;;;4.80;59.40;;;;;;6191304;23;19912;-87
2021/12/22 09:06:01;;;;;;;;;;;4.90;59.50;;;;;;6218431;23;19920;-88
2021/12/22 09:08:27;;;;;;;;;;;5.10;60.00;;;;;;6191817;23;19989;-88
2021/12/22 09:10:52;;;;;;;;;;;5.30;60.30;;;;;;6192381;23;19908;-88
2021/12/22 09:13:20;;;;;;;;;;;5.50;60.30;;;;;;6219026;23;20212;-88
2021/12/22 09:15:46;;;;;;;;;;;5.70;60.40;;;;;;6223884;23;19932;-89
2021/12/22 09:18:16;;;;;;;;;;;5.80;60.00;;;;;;6201162;23;19915;-87
2021/12/22 09:20:42;;;;;;;;;;;5.80;59.60;;;;;;6173127;23;19916;-90
2021/12/22 09:23:08;;;;;;;;;;;5.90;59.70;;;;;;6222142;23;19908;-91
2021/12/22 09:25:33;;;;;;;;;;;5.90;60.10;;;;;;6219719;23;19915;-88
2021/12/22 09:28:03;;;;;;;;;;;6.10;60.50;;;;;;6217806;23;19947;-89
2021/12/22 09:30:35;;;;;;;;;;;6.20;60.50;;;;;;6193154;23;19911;-88
2021/12/22 09:33:02;;;;;;;;;;;6.30;60.40;;;;;;6218663;23;19931;-88
2021/12/22 09:35:27;;;;;;;;;;;6.40;60.30;;;;;;6194350;23;19938;-89
2021/12/22 09:37:53;;;;;;;;;;;6.50;60.20;;;;;;6193414;23;19904;-89
2021/12/22 09:40:18;;;;;;;;;;;6.60;60.20;;;;;;6220373;23;19998;-90
2021/12/22 09:42:44;;;;;;;;;;;6.70;60.20;;;;;;6220260;23;19916;-90
2021/12/22 09:45:09;;;;;;;;;;;6.70;60.30;;;;;;6219115;23;19939;-88
2021/12/22 09:47:50;;;;;;;;;;;6.80;60.40;;;;;;6194603;23;20711;-89
2021/12/22 09:50:24;;;;;;;;;;;6.90;60.40;;;;;;6193236;23;19948;-89
2021/12/22 09:52:50;;;;;;;;;;;7.10;60.40;;;;;;6220949;23;19904;-90
2021/12/22 09:55:15;;;;;;;;;;;7.10;60.30;;;;;;6193268;23;19920;-90
2021/12/22 09:57:41;;;;;;;;;;;7.20;60.20;;;;;;6220940;23;19914;-88
2021/12/22 10:00:08;;;;;;;;;;;7.20;60.30;;;;;;6192536;23;20293;-88
2021/12/22 10:02:33;;;;;;;;;;;7.20;60.10;;;;;;6221412;23;19904;-89
2021/12/22 10:04:59;;;;;;;;;;;7.30;60.20;;;;;;6193098;23;19916;-88
2021/12/22 10:07:27;;;;;;;;;;;7.30;60.10;;;;;;6194510;23;19908;-90
2021/12/22 10:09:54;;;;;;;;;;;7.40;60.00;;;;;;6192123;23;19919;-88
2021/12/22 10:12:21;;;;;;;;;;;7.50;60.10;;;;;;6218715;23;19912;-89
2021/12/22 10:14:49;;;;;;;;;;;7.50;59.90;;;;;;6219554;23;20412;-91
2021/12/22 10:17:34;;;;;;;;;;;7.50;59.80;;;;;;6193506;23;20218;-90
2021/12/22 10:20:02;;;;;;;;;;;7.50;59.90;;;;;;6194633;23;19912;-91
2021/12/22 10:22:35;;;;;;;;;;;7.60;60.00;;;;;;6193022;23;19911;-91
2021/12/22 10:25:10;;;;;;;;;;;7.60;60.00;;;;;;6194984;23;19959;-92
2021/12/22 10:27:35;;;;;;;;;;;7.60;59.70;;;;;;6193008;23;19951;-89
2021/12/22 10:30:36;;;;;;;;;;;7.70;59.80;;;;;;6192301;23;20244;-90
2021/12/22 10:33:04;;;;;;;;;;;7.60;59.80;;;;;;6097713;23;19913;-88
2021/12/22 10:35:32;;;;;;;;;;;7.60;59.40;;;;;;6170873;23;19978;-90
2021/12/22 10:37:58;;;;;;;;;;;7.50;59.00;;;;;;6193616;23;19911;-89
2021/12/22 10:40:28;;;;;;;;;;;7.50;59.20;;;;;;6218281;23;19912;-89
2021/12/22 10:42:55;;;;;;;;;;;7.50;59.50;;;;;;6218802;23;19931;-90
2021/12/22 10:45:20;;;;;;;;;;;7.50;59.80;;;;;;6189712;23;19920;-89
2021/12/22 10:50:38;;;;;;;;;;;7.50;59.90;;;;;;6218748;23;19939;-91
2021/12/22 10:53:04;;;;;;;;;;;7.50;59.90;;;;;;6217338;23;19919;-91
2021/12/22 10:55:37;;;;;;;;;;;7.50;59.90;;;;;;6190935;23;19915;-90
2021/12/22 10:58:13;;;;;;;;;;;7.50;60.20;;;;;;6190030;23;19904;-90
2021/12/22 11:00:38;;;;;;;;;;;7.60;60.10;;;;;;6216545;23;19919;-90
2021/12/22 11:03:06;;;;;;;;;;;7.70;60.30;;;;;;6216212;23;20229;-89
2021/12/22 11:05:41;;;;;;;;;;;7.70;60.00;;;;;;6215630;23;19916;-89
2021/12/22 11:08:16;;;;;;;;;;;7.70;59.60;;;;;;6215549;23;19908;-90
2021/12/22 11:10:42;;;;;;;;;;;7.60;59.30;;;;;;6217004;23;19940;-90
2021/12/22 11:13:07;;;;;;;;;;;7.50;59.30;;;;;;6216804;23;19908;-89
2021/12/22 11:15:40;;;;;;;;;;;7.40;59.40;;;;;;6191795;23;19912;-90
2021/12/22 11:18:26;;;;;;;;;;;7.40;59.50;;;;;;6191840;23;19904;-92
2021/12/22 11:21:10;;;;;;;;;;;7.30;59.40;;;;;;6190456;23;19912;-89
2021/12/22 11:23:36;;;;;;;;;;;7.20;59.70;;;;;;6190784;23;19907;-89
2021/12/22 11:26:03;;;;;;;;;;;7.20;59.90;;;;;;6217231;23;19920;-89
2021/12/22 11:28:28;;;;;;;;;;;7.20;59.80;;;;;;6189329;23;19904;-89
2021/12/22 11:30:57;;;;;;;;;;;7.10;59.60;;;;;;6189933;23;19955;-89
2021/12/22 11:33:26;;;;;;;;;;;7.10;59.50;;;;;;6214468;23;19987;-88
2021/12/22 11:35:55;;;;;;;;;;;7.20;60.20;;;;;;6190567;23;20270;-88
2021/12/22 11:38:20;;;;;;;;;;;7.30;60.20;;;;;;6189270;23;19952;-89
2021/12/22 11:40:54;;;;;;;;;;;7.40;59.90;;;;;;6216310;23;19997;-90
2021/12/22 11:43:19;;;;;;;;;;;7.40;59.60;;;;;;6217304;23;19915;-89
2021/12/22 11:45:45;;;;;;;;;;;7.30;59.30;;;;;;6218626;23;20308;-91
2021/12/22 11:48:11;;;;;;;;;;;7.30;59.20;;;;;;6190182;23;19916;-90
2021/12/22 11:50:36;;;;;;;;;;;7.20;58.80;;;;;;6215355;23;20219;-88
2021/12/22 11:53:04;;;;;;;;;;;7.10;58.60;;;;;;6212299;23;19911;-88
2021/12/22 11:55:49;;;;;;;;;;;7.00;58.40;;;;;;6187672;23;19951;-88
2021/12/22 11:58:19;;;;;;;;;;;6.80;58.50;;;;;;6216602;23;19919;-90
2021/12/22 12:00:44;;;;;;;;;;;6.70;58.60;;;;;;6190069;23;20331;-90
2021/12/22 12:03:26;;;;;;;;;;;6.70;58.90;;;;;;6217318;23;19923;-91
2021/12/22 12:06:02;;;;;;;;;;;6.70;58.80;;;;;;6189619;23;19920;-90
2021/12/22 12:08:45;;;;;;;;;;;6.60;58.40;;;;;;6190690;23;19987;-91
2021/12/22 12:11:17;;;;;;;;;;;6.50;58.90;;;;;;6189182;23;19912;-90
2021/12/22 12:13:48;;;;;;;;;;;6.40;58.80;;;;;;6190516;23;19912;-90
2021/12/22 12:21:51;;;;;;;;;;;6.30;59.00;;;;;;6218903;23;19958;-89
2021/12/22 12:24:40;;;;;;;;;;;6.20;59.00;;;;;;6190820;23;19947;-89
2021/12/22 12:27:25;;;;;;;;;;;6.20;59.10;;;;;;6199772;23;19915;-89
2021/12/22 12:30:00;;;;;;;;;;;6.20;59.30;;;;;;6217288;23;19927;-89
2021/12/22 12:32:44;;;;;;;;;;;6.20;59.50;;;;;;6216547;23;20363;-90
2021/12/22 12:35:19;;;;;;;;;;;6.20;59.50;;;;;;6190416;23;19966;-88
2021/12/22 12:38:03;;;;;;;;;;;6.20;59.60;;;;;;6216805;23;20371;-89
2021/12/22 12:40:48;;;;;;;;;;;6.20;59.60;;;;;;6189877;23;19908;-89
2021/12/22 12:43:13;;;;;;;;;;;6.20;59.70;;;;;;6216596;23;19919;-89
2021/12/22 12:45:48;;;;;;;;;;;6.10;59.70;;;;;;6189403;23;19916;-90
2021/12/22 12:48:39;;;;;;;;;;;6.20;59.70;;;;;;6216172;23;19916;-89
2021/12/22 12:51:25;;;;;;;;;;;6.20;59.60;;;;;;6209065;23;19912;-89
2021/12/22 12:53:51;;;;;;;;;;;6.20;59.50;;;;;;6189759;23;19932;-89
2021/12/22 12:56:17;;;;;;;;;;;6.10;59.80;;;;;;6216842;23;19916;-89
2021/12/22 12:58:55;;;;;;;;;;;6.10;59.60;;;;;;6189382;23;19931;-88
2021/12/22 13:01:39;;;;;;;;;;;6.10;59.50;;;;;;6216678;23;19935;-89
2021/12/22 13:04:24;;;;;;;;;;;6.10;59.60;;;;;;6189499;23;19919;-89
2021/12/22 13:06:50;;;;;;;;;;;6.00;59.70;;;;;;6190245;23;19962;-88
2021/12/22 13:09:29;;;;;;;;;;;6.00;59.70;;;;;;6189239;23;19959;-89
2021/12/22 13:11:58;;;;;;;;;;;6.00;59.70;;;;;;6189679;23;19962;-89
2021/12/22 13:17:16;;;;;;;;;;;6.00;59.90;;;;;;6216135;23;19959;-89
2021/12/22 13:19:42;;;;;;;;;;;6.00;60.00;;;;;;6216224;23;20325;-89
2021/12/22 13:22:16;;;;;;;;;;;6.00;59.80;;;;;;6216149;23;19915;-89
2021/12/22 13:24:42;;;;;;;;;;;6.00;59.70;;;;;;6188996;23;19918;-89
2021/12/22 13:27:07;;;;;;;;;;;6.00;59.50;;;;;;6214006;23;19912;-89
2021/12/22 13:29:35;;;;;;;;;;;6.00;59.30;;;;;;6214914;23;19918;-89
2021/12/22 13:32:05;;;;;;;;;;;6.00;59.20;;;;;;6215218;23;19912;-89
2021/12/22 13:34:40;;;;;;;;;;;5.90;59.40;;;;;;6189554;23;19908;-91
2021/12/22 13:37:06;;;;;;;;;;;5.90;59.30;;;;;;6216439;23;19919;-90
2021/12/22 13:39:40;;;;;;;;;;;5.90;59.30;;;;;;6215491;23;19911;-88
2021/12/22 13:42:07;;;;;;;;;;;5.90;59.40;;;;;;6216438;23;19912;-90
2021/12/22 13:44:37;;;;;;;;;;;5.90;59.50;;;;;;6214433;23;19912;-90
2021/12/22 13:47:03;;;;;;;;;;;5.80;59.50;;;;;;6190196;23;19916;-90
2021/12/22 13:49:29;;;;;;;;;;;5.80;59.50;;;;;;6192073;23;19912;-88
2021/12/22 13:51:55;;;;;;;;;;;5.80;59.40;;;;;;6188784;23;19959;-88
2021/12/22 13:54:23;;;;;;;;;;;5.80;59.20;;;;;;6214962;23;20377;-88
2021/12/22 13:56:49;;;;;;;;;;;5.80;59.10;;;;;;6188132;23;20332;-89
2021/12/22 13:59:16;;;;;;;;;;;5.70;59.00;;;;;;6214487;23;19936;-89
2021/12/22 14:01:46;;;;;;;;;;;5.70;58.80;;;;;;6217371;23;19930;-89
2021/12/22 14:04:13;;;;;;;;;;;5.70;58.70;;;;;;6190318;23;19911;-90
2021/12/22 14:06:42;;;;;;;;;;;5.50;58.70;;;;;;6189698;23;19916;-90
2021/12/22 14:09:12;;;;;;;;;;;5.50;58.70;;;;;;6187868;23;19904;-91
2021/12/22 14:11:39;;;;;;;;;;;5.40;58.50;;;;;;6193443;23;20214;-89
2021/12/22 14:14:34;;;;;;;;;;;5.40;58.60;;;;;;6187691;23;20240;-89
2021/12/22 14:17:02;;;;;;;;;;;5.30;58.70;;;;;;6193206;23;19990;-90
2021/12/22 14:19:29;;;;;;;;;;;5.30;58.60;;;;;;6190815;23;19953;-90
2021/12/22 14:22:05;;;;;;;;;;;5.30;58.60;;;;;;6219700;23;19916;-89
2021/12/22 14:24:34;;;;;;;;;;;5.20;58.40;;;;;;6215438;23;19908;-90
2021/12/22 14:27:01;;;;;;;;;;;5.20;58.50;;;;;;6216367;23;19916;-90
2021/12/22 14:29:30;;;;;;;;;;;5.10;58.60;;;;;;6188681;23;20244;-89
2021/12/22 14:31:57;;;;;;;;;;;5.10;58.70;;;;;;6189738;23;19912;-89
2021/12/22 14:34:23;;;;;;;;;;;5.00;58.80;;;;;;6188481;23;19908;-89
2021/12/22 14:36:49;;;;;;;;;;;5.00;58.60;;;;;;6188893;23;19911;-90
2021/12/22 14:39:15;;;;;;;;;;;4.90;58.30;;;;;;6189162;23;19908;-90
2021/12/22 14:41:41;;;;;;;;;;;4.90;57.90;;;;;;6215974;23;19966;-90
2021/12/22 14:44:20;;;;;;;;;;;4.80;57.90;;;;;;6215078;23;20008;-89
2021/12/22 14:46:46;;;;;;;;;;;4.80;57.70;;;;;;6187808;23;19999;-89
2021/12/22 14:49:13;;;;;;;;;;;4.70;57.60;;;;;;6142894;23;1709404;-90